Portada
METAR-TAF:

METAR-TAF

Aeroports :

Hefei, Xina

latitud: 31-52N, longitud: 117-14E, altitud: 36 m

Observació

L'informe es va fer fa 39 minuts, a les 17:00 UTC
Vent 4 kt del Est
Temperatura 9°C
Humitat 71%
Pressió 1023 hPa
Visibilitat 10 km o més
sense núvols per sota de 1500 mi sense presència de cumulonimbus.

METAR: ZSOF 211700Z 08002MPS CAVOK 09/04 Q1023 NOSIG

Hora: 01:39 (17:39 UTC)

Pronòstic

L'informe es va fer fa 2 hores i 38 minuts, a les 15:01 UTC
Pronòstic vàlid del 21 a les 18 UTC al 22 a les 18 UTC
Vent 8 kt del Est/Nord-Est
Visibilitat: 3000 m
Núvols disperses a una alçada de 3000 ft
boirina

TAF: ZSOF 211501Z 2118/2218 07004MPS 3000 BR SCT030 TX13/2207Z TN08/2122Z

Observacions i pronòstics meteorològics de més de 4000 aeroports (METAR i TAF).

Les estacions disponibles són els punts grocs i vermells al mapa.

Posi el ratolí al punt desitjat per veure el nom de l'estació.

Feu clic per veure les observacions i els pronòstics meteorològics.

Per canviar el mapa: feu clic els botons verds amb una creu de color negre per apropar; al botó verd amb un guió per allunyar la imatge; o en les fletxes verdes per a mapes adjacents.


METAR-TAF: